Time;durP1;ratioP1;P1;durP2;ratioP2;P2;SDS_P1;SDS_P2;PMS_P1;PMS_P2;Temp;Humidity;BMP_temperature;BMP_pressure;BME280_temperature;BME280_humidity;BME280_pressure;Samples;Min_cycle;Max_cycle;Signal;HPM_P1;HPM_P2
2023/09/23 00:02:00;;;;;;;7.07;6.67;;;13.00;99.90;;;;;;4973275;28;20652;-80
2023/09/23 00:04:29;;;;;;;7.33;6.73;;;12.90;99.90;;;;;;4973123;28;20209;-81
2023/09/23 00:06:57;;;;;;;7.10;6.70;;;13.00;99.90;;;;;;4972918;28;20287;-81
2023/09/23 00:09:24;;;;;;;7.50;7.00;;;13.00;99.90;;;;;;4973014;28;20277;-82
2023/09/23 00:11:51;;;;;;;7.10;6.70;;;13.00;99.90;;;;;;4981856;28;20210;-81
2023/09/23 00:14:17;;;;;;;7.20;6.80;;;13.00;99.90;;;;;;4972824;28;20582;-80
2023/09/23 00:16:46;;;;;;;7.50;7.00;;;13.00;99.90;;;;;;4974434;28;20198;-81
2023/09/23 00:19:14;;;;;;;7.23;6.73;;;13.10;99.90;;;;;;4972984;28;20544;-81
2023/09/23 00:21:42;;;;;;;7.67;7.07;;;13.10;99.90;;;;;;4974436;28;20277;-80
2023/09/23 00:24:11;;;;;;;7.23;6.83;;;13.10;99.90;;;;;;4973363;28;20590;-81
2023/09/23 00:26:38;;;;;;;7.30;6.90;;;13.20;99.90;;;;;;4973413;28;20228;-82
2023/09/23 00:29:05;;;;;;;7.70;7.00;;;13.30;99.90;;;;;;4973175;28;20214;-81
2023/09/23 00:31:33;;;;;;;7.80;7.30;;;13.30;99.90;;;;;;4974323;28;20194;-80
2023/09/23 00:34:00;;;;;;;7.60;7.10;;;13.30;99.90;;;;;;4972663;28;20209;-82
2023/09/23 00:36:28;;;;;;;7.50;7.00;;;13.20;99.90;;;;;;4974037;28;20221;-80
2023/09/23 00:38:56;;;;;;;7.50;6.90;;;13.20;99.90;;;;;;4974068;28;20201;-80
2023/09/23 00:41:25;;;;;;;7.23;6.83;;;13.20;99.90;;;;;;4972888;28;20204;-81
2023/09/23 00:43:53;;;;;;;7.10;6.70;;;13.10;99.90;;;;;;4972285;28;20202;-80
2023/09/23 00:46:23;;;;;;;7.50;7.00;;;13.10;99.90;;;;;;4965573;28;20186;-80
2023/09/23 00:48:51;;;;;;;7.47;7.07;;;13.20;99.90;;;;;;4972786;28;20661;-81
2023/09/23 00:51:21;;;;;;;7.60;7.10;;;13.10;99.90;;;;;;4973713;28;20221;-81
2023/09/23 00:53:48;;;;;;;7.70;7.13;;;13.20;99.90;;;;;;4974669;28;20643;-81
2023/09/23 00:56:19;;;;;;;8.00;7.40;;;13.10;99.90;;;;;;4980767;28;20222;-82
2023/09/23 00:58:47;;;;;;;7.70;7.20;;;13.10;99.90;;;;;;4971769;28;20592;-80
2023/09/23 01:01:16;;;;;;;7.40;6.90;;;13.10;99.90;;;;;;4976321;28;20229;-80
2023/09/23 01:03:43;;;;;;;6.73;6.40;;;13.10;99.90;;;;;;4976334;28;20206;-82
2023/09/23 01:06:15;;;;;;;7.10;6.60;;;13.00;99.90;;;;;;4984503;28;20197;-81
2023/09/23 01:08:43;;;;;;;6.90;6.50;;;12.90;99.90;;;;;;4975950;28;20730;-80
2023/09/23 01:11:10;;;;;;;7.30;6.80;;;12.90;99.90;;;;;;4984001;28;20223;-81
2023/09/23 01:13:37;;;;;;;7.07;6.60;;;12.80;99.90;;;;;;4975366;28;20202;-80
2023/09/23 01:16:09;;;;;;;7.20;6.70;;;12.70;99.90;;;;;;4977484;28;20221;-81
2023/09/23 01:18:36;;;;;;;7.60;7.00;;;12.70;99.90;;;;;;4976247;28;20206;-80
2023/09/23 01:21:07;;;;;;;7.70;7.10;;;12.60;99.90;;;;;;4976008;28;20232;-80
2023/09/23 01:23:36;;;;;;;7.33;6.93;;;12.60;99.90;;;;;;4977173;28;20269;-80
2023/09/23 01:26:04;;;;;;;7.10;6.67;;;12.50;99.90;;;;;;4975554;28;20201;-81
2023/09/23 01:28:31;;;;;;;7.50;7.00;;;12.40;99.90;;;;;;4975076;28;20204;-81
2023/09/23 01:30:59;;;;;;;7.30;6.90;;;12.30;99.90;;;;;;4977551;28;20623;-80
2023/09/23 01:33:28;;;;;;;7.20;6.80;;;12.30;99.90;;;;;;4975874;28;20716;-80
2023/09/23 01:35:57;;;;;;;7.23;6.83;;;12.30;99.90;;;;;;4983312;28;20221;-81
2023/09/23 01:38:24;;;;;;;7.17;6.67;;;12.20;99.90;;;;;;4971040;28;20661;-81
2023/09/23 01:40:52;;;;;;;7.10;6.60;;;12.20;99.90;;;;;;4976429;28;20221;-80
2023/09/23 01:43:19;;;;;;;7.57;6.83;;;12.10;99.90;;;;;;4975513;28;20210;-80
2023/09/23 01:45:45;;;;;;;7.57;6.97;;;12.00;99.90;;;;;;4975099;28;20229;-81
2023/09/23 01:48:15;;;;;;;6.97;6.57;;;12.00;99.90;;;;;;4975365;28;20216;-80
2023/09/23 01:50:42;;;;;;;7.93;7.27;;;11.90;99.90;;;;;;4975533;28;20247;-81
2023/09/23 01:53:09;;;;;;;7.57;7.07;;;11.90;99.90;;;;;;4974963;28;20215;-80
2023/09/23 01:55:36;;;;;;;7.30;6.90;;;11.90;99.90;;;;;;4980796;28;20277;-80
2023/09/23 01:58:05;;;;;;;7.43;7.00;;;11.80;99.90;;;;;;4971861;28;20201;-80
2023/09/23 02:00:32;;;;;;;7.50;7.10;;;11.80;99.90;;;;;;4974830;28;20245;-80
2023/09/23 02:02:59;;;;;;;7.97;7.43;;;11.80;99.90;;;;;;4975195;28;20694;-80
2023/09/23 02:05:27;;;;;;;7.70;7.20;;;11.70;99.90;;;;;;4967320;28;20188;-83
2023/09/23 02:07:55;;;;;;;7.70;7.20;;;11.70;99.90;;;;;;4974235;28;20206;-79
2023/09/23 02:10:24;;;;;;;7.40;7.00;;;11.70;99.90;;;;;;4975499;28;20213;-80
2023/09/23 02:12:51;;;;;;;6.97;6.57;;;11.60;99.90;;;;;;4974440;28;20271;-79
2023/09/23 02:15:20;;;;;;;7.30;6.80;;;11.60;99.90;;;;;;4983942;28;20251;-81
2023/09/23 02:17:48;;;;;;;7.40;6.90;;;11.60;99.90;;;;;;4975159;28;20674;-82
2023/09/23 02:20:21;;;;;;;7.40;6.90;;;11.60;99.90;;;;;;4974577;28;20232;-81
2023/09/23 02:22:52;;;;;;;7.50;7.00;;;11.50;99.90;;;;;;4976907;28;20214;-81
2023/09/23 02:25:19;;;;;;;8.10;7.00;;;11.50;99.90;;;;;;4974646;28;20205;-80
2023/09/23 02:27:47;;;;;;;7.30;6.90;;;11.40;99.90;;;;;;4974173;28;20286;-81
2023/09/23 02:30:14;;;;;;;7.70;7.20;;;11.40;99.90;;;;;;4974259;28;20236;-80
2023/09/23 02:32:44;;;;;;;7.60;7.20;;;11.40;99.90;;;;;;4974257;28;20199;-80
2023/09/23 02:35:12;;;;;;;7.50;7.00;;;11.40;99.90;;;;;;4974239;28;20229;-80
2023/09/23 02:37:40;;;;;;;7.27;6.77;;;11.40;99.90;;;;;;4975875;28;20695;-79
2023/09/23 02:40:12;;;;;;;7.27;6.83;;;11.30;99.90;;;;;;4974599;28;20264;-81
2023/09/23 02:42:40;;;;;;;7.33;6.73;;;11.30;99.90;;;;;;4974539;28;20213;-83
2023/09/23 02:45:09;;;;;;;7.07;6.67;;;11.30;99.90;;;;;;4975440;28;20692;-81
2023/09/23 02:47:37;;;;;;;7.50;7.00;;;11.30;99.90;;;;;;4973965;28;20271;-80
2023/09/23 02:50:09;;;;;;;7.20;6.80;;;11.30;99.90;;;;;;4982084;28;20251;-81
2023/09/23 02:52:37;;;;;;;7.10;6.70;;;11.20;99.90;;;;;;4963637;28;20206;-80
2023/09/23 02:55:07;;;;;;;7.50;7.10;;;11.20;99.90;;;;;;4968370;28;20202;-80
2023/09/23 02:57:35;;;;;;;7.20;6.80;;;11.10;99.90;;;;;;4975447;28;20206;-80
2023/09/23 03:00:13;;;;;;;7.23;6.83;;;11.10;99.90;;;;;;4968594;28;20644;-81
2023/09/23 03:02:39;;;;;;;7.40;6.90;;;11.10;99.90;;;;;;4963024;28;20213;-80
2023/09/23 03:05:09;;;;;;;7.30;6.90;;;11.00;99.90;;;;;;4974767;28;20230;-81
2023/09/23 03:07:39;;;;;;;7.20;6.80;;;11.00;99.90;;;;;;4974098;28;20666;-82
2023/09/23 03:10:12;;;;;;;7.10;6.70;;;11.00;99.90;;;;;;4967210;28;20225;-82
2023/09/23 03:12:43;;;;;;;6.97;6.57;;;11.00;99.90;;;;;;4973628;28;20200;-81
2023/09/23 03:15:15;;;;;;;7.57;7.07;;;11.00;99.90;;;;;;4968396;28;20215;-80
2023/09/23 03:17:50;;;;;;;7.63;7.13;;;10.90;99.90;;;;;;4967479;28;20199;-83
2023/09/23 03:20:24;;;;;;;7.27;6.80;;;10.90;99.90;;;;;;4982262;28;20231;-83
2023/09/23 03:22:53;;;;;;;7.27;6.87;;;10.90;99.90;;;;;;4972980;28;20234;-81
2023/09/23 03:25:21;;;;;;;7.40;7.00;;;10.90;99.90;;;;;;4966037;28;20199;-81
2023/09/23 03:27:49;;;;;;;7.20;6.80;;;10.90;99.90;;;;;;4963959;28;20295;-82
2023/09/23 03:30:17;;;;;;;7.80;7.40;;;10.80;99.90;;;;;;4986261;28;20239;-81
2023/09/23 03:32:46;;;;;;;7.40;7.00;;;10.80;99.90;;;;;;4969737;28;20232;-81
2023/09/23 03:35:17;;;;;;;7.33;6.93;;;10.80;99.90;;;;;;4967809;28;20264;-82
2023/09/23 03:37:50;;;;;;;7.40;7.00;;;10.80;99.90;;;;;;4973277;28;20230;-81
2023/09/23 03:40:24;;;;;;;7.20;6.80;;;10.80;99.90;;;;;;4973228;28;20506;-81
2023/09/23 03:42:51;;;;;;;7.20;6.80;;;10.70;99.90;;;;;;4969912;28;20218;-82
2023/09/23 03:45:18;;;;;;;7.43;7.03;;;10.70;99.90;;;;;;4971390;28;20214;-80
2023/09/23 03:47:46;;;;;;;7.70;7.20;;;10.70;99.90;;;;;;4964239;28;20209;-82
2023/09/23 03:50:13;;;;;;;7.10;6.70;;;10.70;99.90;;;;;;4971186;28;20215;-82
2023/09/23 03:52:41;;;;;;;6.97;6.57;;;10.70;99.90;;;;;;4972895;28;20722;-81
2023/09/23 03:55:11;;;;;;;6.97;6.57;;;10.70;99.90;;;;;;4972675;28;20214;-81
2023/09/23 03:57:39;;;;;;;7.40;7.00;;;10.70;99.90;;;;;;4967089;28;20215;-81
2023/09/23 04:00:14;;;;;;;7.30;6.90;;;10.70;99.90;;;;;;4972032;28;20702;-82
2023/09/23 04:02:41;;;;;;;7.40;6.90;;;10.70;99.90;;;;;;4973322;28;20294;-80
2023/09/23 04:05:08;;;;;;;7.50;7.10;;;10.70;99.90;;;;;;4972790;28;20205;-81
2023/09/23 04:07:35;;;;;;;7.60;7.20;;;10.70;99.90;;;;;;4968018;28;20196;-81
2023/09/23 04:10:02;;;;;;;7.43;7.03;;;10.70;99.90;;;;;;4974271;28;20289;-82
2023/09/23 04:12:30;;;;;;;7.60;7.10;;;10.60;99.90;;;;;;4972109;28;20207;-81
2023/09/23 04:14:58;;;;;;;7.40;7.00;;;10.60;99.90;;;;;;4969277;28;20195;-81
2023/09/23 04:17:26;;;;;;;7.37;6.90;;;10.60;99.90;;;;;;4963482;28;20222;-81
2023/09/23 04:19:54;;;;;;;7.23;6.83;;;10.60;99.90;;;;;;4972272;28;20241;-84
2023/09/23 04:22:21;;;;;;;7.27;6.87;;;10.60;99.90;;;;;;4973341;28;20598;-81
2023/09/23 04:24:48;;;;;;;7.60;7.20;;;10.50;99.90;;;;;;4975624;28;20201;-82
2023/09/23 04:27:16;;;;;;;7.90;7.43;;;10.50;99.90;;;;;;4974231;28;20250;-82
2023/09/23 04:29:44;;;;;;;8.00;7.50;;;10.50;99.90;;;;;;4973095;28;20226;-81
2023/09/23 04:32:12;;;;;;;8.03;7.60;;;10.60;99.90;;;;;;4974543;28;20202;-80
2023/09/23 04:34:39;;;;;;;7.83;7.43;;;10.60;99.90;;;;;;4976151;28;20191;-81
2023/09/23 04:37:08;;;;;;;7.87;7.47;;;10.60;99.90;;;;;;4978365;28;20211;-83
2023/09/23 04:39:35;;;;;;;8.30;7.80;;;10.60;99.90;;;;;;4977133;28;20219;-80
2023/09/23 04:42:03;;;;;;;8.20;7.70;;;10.60;99.90;;;;;;4976149;28;20205;-82
2023/09/23 04:44:31;;;;;;;7.90;7.50;;;10.60;99.90;;;;;;4976481;28;20210;-80
2023/09/23 04:46:59;;;;;;;8.20;7.70;;;10.60;99.90;;;;;;4979251;28;20226;-79
2023/09/23 04:49:32;;;;;;;8.30;7.80;;;10.60;99.90;;;;;;4978515;28;20213;-78
2023/09/23 04:52:03;;;;;;;8.00;7.50;;;10.50;99.90;;;;;;4974723;28;20233;-83
2023/09/23 04:54:30;;;;;;;7.90;7.40;;;10.60;99.90;;;;;;4977116;28;20206;-78
2023/09/23 04:56:57;;;;;;;8.00;7.50;;;10.60;99.90;;;;;;4977391;28;20650;-79
2023/09/23 04:59:25;;;;;;;8.73;8.20;;;10.50;99.90;;;;;;4978767;28;20219;-79
2023/09/23 05:01:52;;;;;;;8.30;7.60;;;10.50;99.90;;;;;;4986196;28;20261;-79
2023/09/23 05:04:20;;;;;;;8.17;7.67;;;10.50;99.90;;;;;;4977055;28;20238;-79
2023/09/23 05:06:47;;;;;;;8.33;7.83;;;10.50;99.90;;;;;;4977832;28;20186;-79
2023/09/23 05:09:16;;;;;;;8.30;7.80;;;10.50;99.90;;;;;;4976092;28;20202;-79
2023/09/23 05:11:43;;;;;;;8.17;7.77;;;10.50;99.90;;;;;;4969785;28;20202;-79
2023/09/23 05:14:10;;;;;;;8.43;7.93;;;10.50;99.90;;;;;;4976213;28;20692;-79
2023/09/23 05:16:37;;;;;;;8.63;8.10;;;10.60;99.90;;;;;;4976358;28;20257;-79
2023/09/23 05:19:03;;;;;;;8.47;7.97;;;10.50;99.90;;;;;;4970824;28;20214;-79
2023/09/23 05:21:33;;;;;;;8.47;7.97;;;10.60;99.90;;;;;;4977430;28;20827;-80
2023/09/23 05:24:00;;;;;;;8.23;7.80;;;10.60;99.90;;;;;;4977835;28;20199;-80
2023/09/23 05:26:27;;;;;;;8.40;7.90;;;10.70;99.90;;;;;;4976214;28;20221;-79
2023/09/23 05:28:56;;;;;;;9.67;9.13;;;10.70;99.90;;;;;;4977120;28;20209;-79
2023/09/23 05:31:22;;;;;;;10.00;9.40;;;10.80;99.90;;;;;;4975405;28;20658;-79
2023/09/23 05:33:49;;;;;;;8.43;7.93;;;10.90;99.90;;;;;;4980574;28;20198;-78
2023/09/23 05:36:17;;;;;;;8.47;7.97;;;10.90;99.90;;;;;;4981077;28;20253;-79
2023/09/23 05:38:45;;;;;;;8.80;8.30;;;11.00;99.90;;;;;;4980136;28;20215;-78
2023/09/23 05:41:13;;;;;;;8.40;7.90;;;11.10;99.90;;;;;;4977978;28;20677;-79
2023/09/23 05:43:40;;;;;;;8.40;7.90;;;11.10;99.90;;;;;;4978247;28;20222;-79
2023/09/23 05:46:09;;;;;;;8.50;8.00;;;11.20;99.90;;;;;;4977722;28;20190;-79
2023/09/23 05:48:36;;;;;;;8.77;8.20;;;11.20;99.90;;;;;;4977323;28;20283;-79
2023/09/23 05:51:06;;;;;;;8.70;8.10;;;11.30;99.90;;;;;;4971369;28;20647;-80
2023/09/23 05:53:34;;;;;;;8.53;8.03;;;11.30;99.90;;;;;;4976577;28;20211;-79
2023/09/23 05:56:02;;;;;;;8.90;8.37;;;11.40;99.90;;;;;;4979838;28;20242;-79
2023/09/23 05:58:29;;;;;;;8.80;8.30;;;11.40;99.90;;;;;;4986541;28;20207;-78
2023/09/23 06:00:56;;;;;;;8.40;7.90;;;11.40;99.90;;;;;;4981953;28;20226;-79
2023/09/23 06:03:23;;;;;;;8.30;7.90;;;11.50;99.90;;;;;;4981538;28;20205;-79
2023/09/23 06:05:50;;;;;;;8.37;7.87;;;11.50;99.90;;;;;;4979711;28;20197;-79
2023/09/23 06:08:17;;;;;;;8.90;8.10;;;11.60;99.90;;;;;;4980353;28;20200;-79
2023/09/23 06:11:06;;;;;;;8.43;7.93;;;11.70;99.90;;;;;;4977931;28;20737;-81
2023/09/23 06:13:34;;;;;;;8.30;7.80;;;11.70;99.90;;;;;;4974300;28;20212;-77
2023/09/23 06:16:04;;;;;;;8.00;7.50;;;11.80;99.90;;;;;;4976549;28;20300;-82
2023/09/23 06:18:31;;;;;;;8.30;7.90;;;11.80;99.90;;;;;;4975276;28;20741;-81
2023/09/23 06:20:59;;;;;;;8.80;8.30;;;11.90;99.90;;;;;;4976241;28;20235;-81
2023/09/23 06:23:26;;;;;;;8.93;8.33;;;12.00;99.90;;;;;;4976372;28;20211;-82
2023/09/23 06:25:54;;;;;;;8.83;8.20;;;12.00;99.90;;;;;;4976901;28;20199;-83
2023/09/23 06:28:22;;;;;;;9.07;8.57;;;12.10;99.90;;;;;;4969724;28;20190;-84
2023/09/23 06:30:52;;;;;;;8.73;8.23;;;12.20;99.90;;;;;;4970795;28;20224;-83
2023/09/23 06:33:19;;;;;;;8.30;7.80;;;12.30;99.90;;;;;;4971242;28;20684;-78
2023/09/23 06:35:46;;;;;;;8.20;7.70;;;12.40;99.90;;;;;;4973480;28;20205;-80
2023/09/23 06:38:13;;;;;;;8.90;8.30;;;12.50;99.90;;;;;;4974367;28;20232;-79
2023/09/23 06:40:40;;;;;;;8.83;8.33;;;12.60;99.90;;;;;;4973891;28;20225;-80
2023/09/23 06:43:07;;;;;;;9.20;8.70;;;12.70;99.90;;;;;;4975261;28;20224;-80
2023/09/23 06:45:35;;;;;;;8.93;8.33;;;12.80;99.90;;;;;;4976025;28;20197;-80
2023/09/23 06:48:02;;;;;;;8.87;8.37;;;12.90;99.90;;;;;;4974400;28;20288;-80
2023/09/23 06:50:29;;;;;;;8.53;8.03;;;12.90;99.90;;;;;;4975996;28;20226;-80
2023/09/23 06:53:00;;;;;;;6.70;6.30;;;13.00;99.90;;;;;;4971645;28;20856;-79
2023/09/23 06:55:27;;;;;;;7.57;7.07;;;13.00;99.90;;;;;;4975811;28;20202;-84
2023/09/23 06:57:54;;;;;;;7.20;6.63;;;13.10;99.90;;;;;;4973859;28;20217;-83
2023/09/23 07:00:21;;;;;;;9.43;8.83;;;13.10;99.90;;;;;;4975273;28;20230;-84
2023/09/23 07:02:49;;;;;;;6.73;6.33;;;13.10;99.90;;;;;;4973706;28;20221;-81
2023/09/23 07:05:16;;;;;;;7.10;6.67;;;13.20;99.90;;;;;;4963987;28;20198;-82
2023/09/23 07:07:43;;;;;;;9.23;8.47;;;13.20;99.90;;;;;;4973573;28;20221;-82
2023/09/23 07:10:10;;;;;;;8.60;8.10;;;13.30;99.90;;;;;;4974796;28;20225;-84
2023/09/23 07:12:37;;;;;;;8.77;8.20;;;13.40;99.90;;;;;;4974920;28;20202;-84
2023/09/23 07:15:05;;;;;;;8.30;7.70;;;13.40;99.90;;;;;;4973355;28;20209;-80
2023/09/23 07:17:31;;;;;;;9.53;8.97;;;13.50;99.90;;;;;;4973620;28;20225;-83
2023/09/23 07:20:00;;;;;;;8.60;8.00;;;13.70;99.90;;;;;;4983766;28;20229;-83
2023/09/23 07:22:26;;;;;;;2.50;2.30;;;13.90;99.90;;;;;;4974223;28;20198;-81
2023/09/23 07:24:53;;;;;;;5.30;5.00;;;14.10;99.90;;;;;;4974830;28;20220;-78
2023/09/23 07:27:20;;;;;;;2.70;2.50;;;14.20;99.90;;;;;;4974894;28;20259;-83
2023/09/23 07:29:47;;;;;;;2.87;2.10;;;14.30;99.90;;;;;;4973280;28;20741;-82
2023/09/23 07:32:22;;;;;;;2.60;2.40;;;14.40;99.90;;;;;;4982503;28;20209;-82
2023/09/23 07:34:49;;;;;;;7.10;6.60;;;14.60;99.90;;;;;;4978710;28;20213;-79
2023/09/23 07:37:20;;;;;;;7.90;7.40;;;14.80;99.90;;;;;;4975207;28;20276;-84
2023/09/23 07:39:47;;;;;;;2.80;2.40;;;15.10;99.90;;;;;;4973439;28;20227;-83
2023/09/23 07:42:14;;;;;;;2.43;2.27;;;15.30;99.90;;;;;;4983311;28;20197;-78
2023/09/23 07:44:41;;;;;;;2.43;2.23;;;15.50;99.90;;;;;;4979862;28;20247;-77
2023/09/23 07:47:08;;;;;;;2.37;2.20;;;15.60;99.90;;;;;;4976383;28;20208;-77
2023/09/23 07:49:35;;;;;;;8.80;8.30;;;15.90;99.90;;;;;;4977879;28;20217;-77
2023/09/23 07:52:02;;;;;;;8.30;7.77;;;16.20;99.90;;;;;;4981929;28;20209;-78
2023/09/23 07:54:30;;;;;;;2.20;2.10;;;16.50;99.90;;;;;;4974524;28;20221;-78
2023/09/23 07:56:57;;;;;;;2.40;2.20;;;16.70;99.90;;;;;;4970350;28;20276;-77
2023/09/23 07:59:24;;;;;;;7.00;6.60;;;17.00;99.90;;;;;;4977311;28;20226;-78
2023/09/23 08:01:51;;;;;;;8.77;8.27;;;17.20;99.90;;;;;;4979196;28;20210;-78
2023/09/23 08:04:18;;;;;;;8.60;8.00;;;17.50;99.90;;;;;;4985688;28;20230;-77
2023/09/23 08:06:44;;;;;;;2.50;2.30;;;17.80;99.90;;;;;;4989037;28;20507;-76
2023/09/23 08:09:11;;;;;;;6.63;6.27;;;18.10;99.90;;;;;;4983888;28;20285;-81
2023/09/23 08:11:40;;;;;;;2.30;2.20;;;18.30;99.90;;;;;;4985194;28;20252;-81
2023/09/23 08:14:09;;;;;;;2.70;2.50;;;18.50;99.90;;;;;;4983214;28;20277;-83
2023/09/23 08:16:36;;;;;;;6.67;6.17;;;18.80;99.90;;;;;;4973886;28;20199;-79
2023/09/23 08:19:03;;;;;;;7.67;7.17;;;19.10;99.90;;;;;;4976249;28;20965;-78
2023/09/23 08:21:30;;;;;;;8.13;7.53;;;19.40;99.90;;;;;;4981683;28;20238;-78
2023/09/23 08:23:57;;;;;;;8.03;7.53;;;19.40;99.90;;;;;;4978070;28;20196;-78
2023/09/23 08:26:24;;;;;;;7.80;7.30;;;19.60;99.90;;;;;;4980231;28;20270;-77
2023/09/23 08:28:53;;;;;;;8.37;7.87;;;19.80;99.90;;;;;;4977661;28;20260;-79
2023/09/23 08:31:21;;;;;;;3.50;2.30;;;20.00;99.90;;;;;;4983112;28;20262;-79
2023/09/23 08:33:47;;;;;;;3.07;2.30;;;20.10;99.90;;;;;;4979854;28;20656;-79
2023/09/23 08:36:14;;;;;;;3.00;2.80;;;20.10;99.90;;;;;;4975286;28;20198;-80
2023/09/23 08:38:41;;;;;;;4.47;4.17;;;20.40;99.90;;;;;;4975166;28;20253;-81
2023/09/23 08:41:08;;;;;;;2.30;2.20;;;20.60;99.90;;;;;;4984019;28;20221;-81
2023/09/23 08:43:39;;;;;;;5.80;5.23;;;20.80;99.90;;;;;;4971995;28;20210;-81
2023/09/23 08:46:09;;;;;;;8.10;7.50;;;21.00;99.90;;;;;;4976650;28;20206;-79
2023/09/23 08:48:42;;;;;;;6.63;6.13;;;21.00;99.90;;;;;;4977155;28;20606;-81
2023/09/23 08:51:12;;;;;;;1.90;1.80;;;20.90;99.90;;;;;;4981019;28;20218;-81
2023/09/23 08:53:47;;;;;;;2.37;2.17;;;21.20;99.90;;;;;;4984598;28;20550;-80
2023/09/23 08:56:17;;;;;;;2.10;2.00;;;21.10;99.90;;;;;;4976888;28;20476;-82
2023/09/23 08:58:45;;;;;;;3.83;2.73;;;21.00;99.90;;;;;;4981718;28;20313;-81
2023/09/23 09:01:14;;;;;;;5.23;2.20;;;21.00;99.90;;;;;;4975880;28;20294;-82
2023/09/23 09:03:41;;;;;;;2.10;2.00;;;21.00;99.90;;;;;;4971265;28;20693;-82
2023/09/23 09:06:16;;;;;;;2.87;2.20;;;20.90;99.90;;;;;;4975546;28;20526;-81
2023/09/23 09:08:43;;;;;;;2.30;2.00;;;20.80;99.90;;;;;;4977234;28;20193;-81
2023/09/23 09:11:11;;;;;;;2.80;2.30;;;20.60;99.90;;;;;;4974283;28;20274;-81
2023/09/23 09:13:38;;;;;;;7.70;7.10;;;20.50;99.90;;;;;;4977310;28;20644;-79
2023/09/23 09:16:06;;;;;;;2.37;2.17;;;20.50;99.90;;;;;;4977258;28;20201;-81
2023/09/23 09:18:34;;;;;;;2.07;1.97;;;20.60;99.90;;;;;;4980240;28;20221;-81
2023/09/23 09:21:01;;;;;;;2.40;2.10;;;20.60;99.90;;;;;;4978352;28;20221;-82
2023/09/23 09:23:32;;;;;;;3.77;2.30;;;20.80;99.90;;;;;;4978432;28;20198;-81
2023/09/23 09:25:59;;;;;;;2.80;2.60;;;20.90;99.90;;;;;;4976534;28;20683;-81
2023/09/23 09:28:26;;;;;;;6.47;6.00;;;20.90;99.90;;;;;;4980876;28;20271;-79
2023/09/23 09:30:57;;;;;;;3.20;2.90;;;21.00;99.90;;;;;;4981388;28;20304;-77
2023/09/23 09:33:26;;;;;;;4.73;2.33;;;21.00;99.90;;;;;;4982633;28;20296;-78
2023/09/23 09:35:56;;;;;;;13.00;2.90;;;20.80;99.90;;;;;;4978967;28;20202;-78
2023/09/23 09:38:25;;;;;;;6.73;2.47;;;20.50;99.90;;;;;;4982560;28;20703;-77
2023/09/23 09:40:56;;;;;;;9.43;2.50;;;20.40;99.90;;;;;;4973079;28;20218;-77
2023/09/23 09:43:25;;;;;;;3.97;2.00;;;20.20;99.90;;;;;;4977897;28;20618;-76
2023/09/23 09:45:54;;;;;;;2.67;2.13;;;20.10;99.90;;;;;;4975726;28;20636;-78
2023/09/23 09:48:25;;;;;;;1.90;1.80;;;20.10;99.90;;;;;;4973885;28;20194;-77
2023/09/23 09:50:56;;;;;;;2.57;2.20;;;20.10;99.90;;;;;;4974490;28;20253;-76
2023/09/23 09:53:25;;;;;;;5.60;5.10;;;20.00;99.90;;;;;;4975027;28;20676;-82
2023/09/23 09:55:56;;;;;;;7.80;7.10;;;19.80;99.90;;;;;;4974772;28;20205;-81
2023/09/23 09:58:37;;;;;;;2.20;2.00;;;19.70;99.90;;;;;;4986150;28;20269;-82
2023/09/23 10:01:04;;;;;;;7.33;6.83;;;19.50;99.90;;;;;;4970849;28;20249;-80
2023/09/23 10:03:39;;;;;;;6.93;6.50;;;19.30;99.90;;;;;;4974486;28;20198;-78
2023/09/23 10:06:08;;;;;;;12.47;8.17;;;19.20;99.90;;;;;;4972363;28;20216;-78
2023/09/23 10:08:39;;;;;;;7.50;6.90;;;19.10;99.90;;;;;;4979271;28;20193;-80
2023/09/23 10:11:09;;;;;;;6.93;6.47;;;19.20;99.90;;;;;;4979151;28;20759;-80
2023/09/23 10:13:36;;;;;;;7.20;6.80;;;19.30;99.90;;;;;;4977769;28;20589;-80
2023/09/23 10:16:04;;;;;;;6.63;6.23;;;19.30;99.90;;;;;;4972903;28;20210;-79
2023/09/23 10:18:36;;;;;;;7.10;6.60;;;19.30;99.90;;;;;;4976249;28;20593;-81
2023/09/23 10:21:05;;;;;;;2.60;2.30;;;19.20;99.90;;;;;;4975717;28;20241;-79
2023/09/23 10:23:39;;;;;;;6.67;6.27;;;19.00;99.90;;;;;;4977179;28;20303;-80
2023/09/23 10:26:14;;;;;;;6.20;5.77;;;19.10;99.90;;;;;;4973784;28;20204;-80
2023/09/23 10:28:43;;;;;;;3.00;2.43;;;19.20;99.90;;;;;;4975709;28;20190;-80
2023/09/23 10:31:13;;;;;;;2.57;2.10;;;19.30;99.90;;;;;;4990803;28;20763;-80
2023/09/23 10:33:43;;;;;;;2.40;2.20;;;19.30;99.90;;;;;;4973001;28;20630;-82
2023/09/23 10:36:20;;;;;;;3.57;2.10;;;19.40;99.90;;;;;;4977902;28;20209;-78
2023/09/23 10:38:49;;;;;;;2.10;1.90;;;19.20;99.90;;;;;;4975956;28;20214;-76
2023/09/23 10:41:17;;;;;;;1.80;1.70;;;19.10;99.90;;;;;;4973253;28;20276;-76
2023/09/23 10:43:43;;;;;;;2.90;2.20;;;19.00;99.90;;;;;;4972081;28;20229;-77
2023/09/23 10:46:10;;;;;;;2.10;2.00;;;19.00;99.90;;;;;;4972495;28;20755;-77
2023/09/23 10:48:37;;;;;;;1.80;1.70;;;18.90;99.90;;;;;;4973687;28;20248;-78
2023/09/23 10:51:05;;;;;;;4.17;2.00;;;18.90;99.90;;;;;;4975593;28;20787;-77
2023/09/23 10:53:32;;;;;;;1.80;1.70;;;18.90;99.90;;;;;;4973710;28;20193;-77
2023/09/23 10:56:01;;;;;;;1.97;1.87;;;18.90;99.90;;;;;;4973183;28;20204;-76
2023/09/23 10:58:29;;;;;;;7.30;6.80;;;18.80;99.90;;;;;;4972681;28;20221;-77
2023/09/23 11:00:57;;;;;;;7.10;6.70;;;18.80;99.90;;;;;;4974044;28;20280;-77
2023/09/23 11:03:24;;;;;;;7.30;6.80;;;18.80;99.90;;;;;;4972635;28;20218;-76
2023/09/23 11:05:51;;;;;;;6.67;6.27;;;18.60;99.90;;;;;;4973791;28;20269;-78
2023/09/23 11:08:19;;;;;;;7.90;7.50;;;18.30;99.90;;;;;;4973741;28;20244;-76
2023/09/23 11:10:47;;;;;;;7.20;6.80;;;18.20;99.90;;;;;;4975365;28;20308;-78
2023/09/23 11:13:16;;;;;;;6.47;6.07;;;18.40;99.90;;;;;;4976507;28;20754;-78
2023/09/23 11:15:45;;;;;;;5.47;5.17;;;18.80;99.90;;;;;;4976770;28;20280;-77
2023/09/23 11:18:13;;;;;;;6.63;6.23;;;19.00;99.90;;;;;;4974909;28;20687;-81
2023/09/23 11:20:42;;;;;;;4.43;4.13;;;19.20;99.90;;;;;;4976288;28;20480;-82
2023/09/23 11:23:10;;;;;;;6.53;6.03;;;19.30;99.90;;;;;;4976797;28;20240;-80
2023/09/23 11:25:39;;;;;;;6.83;6.43;;;19.50;99.90;;;;;;4975259;28;20285;-80
2023/09/23 11:28:06;;;;;;;6.73;6.23;;;19.60;99.90;;;;;;4973639;28;20209;-80
2023/09/23 11:30:35;;;;;;;6.50;6.00;;;19.60;99.90;;;;;;4972213;28;20280;-79
2023/09/23 11:33:01;;;;;;;6.43;6.03;;;19.60;99.90;;;;;;4973657;28;20201;-80
2023/09/23 11:35:28;;;;;;;8.63;8.13;;;19.70;99.90;;;;;;4971670;28;20647;-76
2023/09/23 11:37:55;;;;;;;3.80;3.50;;;19.70;99.90;;;;;;4971236;28;20201;-77
2023/09/23 11:40:23;;;;;;;2.23;2.03;;;19.70;99.90;;;;;;4974917;28;20572;-77
2023/09/23 11:42:51;;;;;;;3.27;1.80;;;19.60;99.90;;;;;;4972268;28;20201;-77
2023/09/23 11:45:20;;;;;;;1.70;1.60;;;19.60;99.90;;;;;;4974953;28;20207;-76
2023/09/23 11:47:49;;;;;;;1.77;1.67;;;19.60;99.90;;;;;;4973466;28;20232;-76
2023/09/23 11:50:16;;;;;;;2.50;1.70;;;19.70;99.90;;;;;;4972517;28;20214;-76
2023/09/23 11:52:43;;;;;;;2.00;1.80;;;19.60;99.90;;;;;;4971392;28;20268;-77
2023/09/23 11:55:12;;;;;;;1.90;1.80;;;19.30;99.90;;;;;;4971868;28;20214;-76
2023/09/23 11:57:39;;;;;;;4.53;4.23;;;19.10;99.90;;;;;;4972897;28;20276;-76
2023/09/23 12:00:09;;;;;;;6.67;6.27;;;18.90;99.90;;;;;;4972432;28;20291;-79
2023/09/23 12:02:37;;;;;;;7.43;7.00;;;18.80;99.90;;;;;;4974936;28;20205;-78
2023/09/23 12:05:07;;;;;;;2.20;2.00;;;18.80;99.90;;;;;;4974235;28;20213;-79
2023/09/23 12:07:34;;;;;;;6.30;5.90;;;18.60;99.90;;;;;;4971882;28;20654;-76
2023/09/23 12:10:03;;;;;;;6.90;6.50;;;18.70;99.90;;;;;;4975772;28;20295;-77
2023/09/23 12:12:30;;;;;;;7.20;6.70;;;18.80;99.90;;;;;;4983268;28;20199;-76
2023/09/23 12:14:56;;;;;;;6.33;5.93;;;19.00;99.90;;;;;;4970317;28;20209;-77
2023/09/23 12:17:23;;;;;;;6.43;6.03;;;19.20;99.90;;;;;;4982297;28;20631;-78
2023/09/23 12:19:50;;;;;;;6.80;6.40;;;19.20;99.90;;;;;;4973921;28;20225;-77
2023/09/23 12:22:20;;;;;;;6.93;6.53;;;19.40;99.90;;;;;;4977423;28;20630;-80
2023/09/23 12:24:53;;;;;;;7.10;6.70;;;19.50;99.90;;;;;;4973618;28;20296;-80
2023/09/23 12:27:21;;;;;;;7.10;6.60;;;19.40;99.90;;;;;;4972312;28;20704;-80
2023/09/23 12:29:48;;;;;;;7.00;6.50;;;19.20;99.90;;;;;;4974772;28;20213;-79
2023/09/23 12:32:15;;;;;;;6.70;6.40;;;19.00;99.90;;;;;;4971836;28;20272;-79
2023/09/23 12:34:42;;;;;;;6.80;6.40;;;19.00;99.90;;;;;;4974995;28;20202;-79
2023/09/23 12:37:09;;;;;;;7.33;6.83;;;19.10;99.90;;;;;;4973747;28;20230;-79
2023/09/23 12:39:37;;;;;;;6.70;6.30;;;19.10;99.90;;;;;;4979190;28;20703;-80
2023/09/23 12:42:04;;;;;;;6.30;6.00;;;19.40;99.90;;;;;;4977270;28;20206;-80
2023/09/23 12:44:31;;;;;;;6.90;6.50;;;19.50;99.90;;;;;;4983996;28;20210;-79
2023/09/23 12:46:58;;;;;;;6.77;6.37;;;19.50;99.90;;;;;;4975079;28;20206;-81
2023/09/23 12:49:25;;;;;;;6.70;6.30;;;19.40;99.90;;;;;;4973203;28;20497;-79
2023/09/23 12:51:52;;;;;;;6.57;6.17;;;19.40;99.90;;;;;;4974400;28;20252;-79